Rex, North Carolina
Current Conditions -  °F | °C
As of 8:53 AM on Thursday 23 Oct 2014 (Local Time) from KFAY Reporting Station
Clear Clear  
Wind Chill: 54°   Ceiling: Unl
Heat Index: 54°   Visibility: 10mi
Dew Point: 40°   Wind: 10mph
Humidity: 59%   Direction: 340°NNW
Pressure: 30.03"   Gusts: NA
Location:  34.86°N, 79.05°W
Report Text: KFAY 231253Z AUTO 34009KT 10SM CLR 12/04 A3003 RMK AO2 SLP164 T01220044
Loading
Personal Weather Stations






























Interactive Weather Map
Tropical Storm Tracking
New forecast layout! Learn more

10-Day Weather Forecast

Advertisements
Track Severe Weather on mobile